SVA712 OPKC-OERK
Flight info
| Callsign | SVA712 |
|---|---|
| Flight time | N/A |
| Altitude | 38000 |
| Route | MELOM1G MELOM A454 TAPDO G652 TULBU M628 PEKEM DCT MEDPO DCT SITUK M321 NAGUB NAGUB1A |
| Aircraft | A339/H-SADE1E2E3GHIJ3J5M1P2RWXY/LB2D1 |
Departure
| Time | N/A |
|---|---|
| Airport | Jinnah International Airport (OPKC) |
Arrival
| Time | 2026-05-07 18:04 |
|---|---|
| Airport | King Khalid International Airport (OERK) |
| Time | Latitude | Longitude | Altitude | Speed | Heading |
|---|---|---|---|---|---|
| 2026-05-07 16:46 | 22.41472 | 52.16559 | 37792 ft | 451 kts | 263° |
| 2026-05-07 16:46 | 22.41295 | 52.09780 | 37792 ft | 453 kts | 272° |
| 2026-05-07 16:47 | 22.42168 | 52.03035 | 37790 ft | 453 kts | 278° |
| 2026-05-07 16:47 | 22.43245 | 51.96314 | 37790 ft | 453 kts | 278° |
| 2026-05-07 16:48 | 22.44299 | 51.89601 | 37801 ft | 453 kts | 278° |
| 2026-05-07 16:48 | 22.45352 | 51.82889 | 37800 ft | 453 kts | 278° |
| 2026-05-07 16:49 | 22.46392 | 51.76236 | 37793 ft | 452 kts | 278° |
| 2026-05-07 16:49 | 22.47439 | 51.69524 | 37799 ft | 452 kts | 278° |
| 2026-05-07 16:50 | 22.48481 | 51.62829 | 37803 ft | 452 kts | 278° |
| 2026-05-07 16:50 | 22.49520 | 51.56128 | 37792 ft | 451 kts | 278° |
| 2026-05-07 16:51 | 22.50556 | 51.49423 | 37794 ft | 451 kts | 277° |
| 2026-05-07 16:51 | 22.51587 | 51.42742 | 37803 ft | 451 kts | 277° |
| 2026-05-07 16:52 | 22.52609 | 51.36095 | 37801 ft | 450 kts | 277° |
| 2026-05-07 16:52 | 22.53635 | 51.29407 | 37795 ft | 450 kts | 277° |
| 2026-05-07 16:53 | 22.54657 | 51.22720 | 37798 ft | 450 kts | 277° |
| 2026-05-07 16:53 | 22.55674 | 51.16048 | 37800 ft | 449 kts | 277° |
| 2026-05-07 16:54 | 22.56689 | 51.09367 | 37799 ft | 449 kts | 277° |
| 2026-05-07 16:54 | 22.57694 | 51.02739 | 37799 ft | 449 kts | 277° |
| 2026-05-07 16:55 | 22.58701 | 50.96070 | 37803 ft | 448 kts | 277° |
| 2026-05-07 16:55 | 22.59704 | 50.89414 | 37800 ft | 448 kts | 277° |
| 2026-05-07 16:56 | 22.60705 | 50.82751 | 37798 ft | 448 kts | 277° |
| 2026-05-07 16:56 | 22.62199 | 50.72771 | 37805 ft | 448 kts | 277° |
| 2026-05-07 16:57 | 22.63192 | 50.66113 | 37810 ft | 448 kts | 277° |
| 2026-05-07 16:57 | 22.64182 | 50.59459 | 37799 ft | 448 kts | 277° |
| 2026-05-07 16:58 | 22.65169 | 50.52806 | 37805 ft | 448 kts | 277° |
| 2026-05-07 16:58 | 22.66146 | 50.46198 | 37805 ft | 447 kts | 276° |
| 2026-05-07 16:59 | 22.67128 | 50.39539 | 37805 ft | 448 kts | 276° |
| 2026-05-07 16:59 | 22.68107 | 50.32880 | 37800 ft | 448 kts | 276° |
| 2026-05-07 17:00 | 22.69085 | 50.26213 | 37807 ft | 448 kts | 276° |
| 2026-05-07 17:00 | 22.70058 | 50.19555 | 37810 ft | 447 kts | 276° |
| 2026-05-07 17:01 | 22.71027 | 50.12905 | 37811 ft | 447 kts | 276° |
| 2026-05-07 17:01 | 22.71995 | 50.06243 | 37802 ft | 447 kts | 276° |
| 2026-05-07 17:02 | 22.72958 | 49.99591 | 37804 ft | 447 kts | 276° |
| 2026-05-07 17:02 | 22.73914 | 49.92975 | 37813 ft | 447 kts | 276° |
| 2026-05-07 17:03 | 22.74872 | 49.86321 | 37807 ft | 447 kts | 276° |
| 2026-05-07 17:03 | 22.75826 | 49.79671 | 37808 ft | 446 kts | 276° |
| 2026-05-07 17:04 | 22.76777 | 49.73027 | 37807 ft | 446 kts | 276° |
| 2026-05-07 17:04 | 22.77727 | 49.66375 | 37808 ft | 446 kts | 276° |
| 2026-05-07 17:05 | 22.78671 | 49.59736 | 37818 ft | 446 kts | 276° |
| 2026-05-07 17:05 | 22.79615 | 49.53084 | 37801 ft | 446 kts | 276° |
| 2026-05-07 17:06 | 22.80553 | 49.46444 | 37817 ft | 446 kts | 276° |
| 2026-05-07 17:06 | 22.81484 | 49.39841 | 37809 ft | 446 kts | 276° |
| 2026-05-07 17:07 | 22.82417 | 49.33206 | 37821 ft | 446 kts | 276° |
| 2026-05-07 17:07 | 22.83347 | 49.26568 | 37808 ft | 445 kts | 276° |
| 2026-05-07 17:08 | 22.84275 | 49.19921 | 37806 ft | 445 kts | 276° |
| 2026-05-07 17:08 | 22.85200 | 49.13277 | 37823 ft | 445 kts | 275° |
| 2026-05-07 17:09 | 22.86123 | 49.06632 | 37822 ft | 446 kts | 275° |
| 2026-05-07 17:09 | 22.87045 | 48.99975 | 37817 ft | 446 kts | 275° |
| 2026-05-07 17:10 | 22.87962 | 48.93321 | 37820 ft | 446 kts | 275° |
| 2026-05-07 17:10 | 22.88871 | 48.86704 | 37825 ft | 446 kts | 275° |
| 2026-05-07 17:11 | 22.89783 | 48.80053 | 37826 ft | 446 kts | 275° |
| 2026-05-07 17:11 | 22.90694 | 48.73386 | 37824 ft | 446 kts | 275° |
| 2026-05-07 17:12 | 22.91601 | 48.66726 | 37829 ft | 446 kts | 275° |
| 2026-05-07 17:12 | 22.92506 | 48.60061 | 37828 ft | 446 kts | 275° |
| 2026-05-07 17:13 | 22.93403 | 48.53436 | 37832 ft | 446 kts | 275° |
| 2026-05-07 17:13 | 22.94301 | 48.46781 | 37835 ft | 446 kts | 275° |
| 2026-05-07 17:14 | 22.95196 | 48.40122 | 37832 ft | 445 kts | 275° |
| 2026-05-07 17:14 | 22.96086 | 48.33480 | 37836 ft | 445 kts | 274° |
| 2026-05-07 17:15 | 22.96974 | 48.26835 | 37838 ft | 445 kts | 274° |
| 2026-05-07 17:15 | 22.97859 | 48.20189 | 37837 ft | 444 kts | 274° |
| 2026-05-07 17:16 | 22.98741 | 48.13546 | 37837 ft | 444 kts | 274° |
| 2026-05-07 17:16 | 22.99668 | 48.06963 | 37840 ft | 445 kts | 277° |
| 2026-05-07 17:17 | 23.01009 | 48.00439 | 37840 ft | 446 kts | 279° |
| 2026-05-07 17:17 | 23.02422 | 47.93890 | 37845 ft | 446 kts | 279° |
| 2026-05-07 17:18 | 23.03838 | 47.87346 | 37848 ft | 445 kts | 279° |
| 2026-05-07 17:18 | 23.05853 | 47.80968 | 37846 ft | 455 kts | 295° |
| 2026-05-07 17:19 | 23.10020 | 47.75736 | 37570 ft | 473 kts | 316° |
| 2026-05-07 17:19 | 23.12797 | 47.73760 | 37326 ft | 479 kts | 324° |
| 2026-05-07 17:19 | 23.15650 | 47.71879 | 37078 ft | 480 kts | 322° |
| 2026-05-07 17:20 | 23.18479 | 47.69957 | 36826 ft | 480 kts | 322° |
| 2026-05-07 17:20 | 23.21319 | 47.68028 | 36582 ft | 481 kts | 322° |
| 2026-05-07 17:20 | 23.24165 | 47.66107 | 36335 ft | 482 kts | 322° |
| 2026-05-07 17:20 | 23.27026 | 47.64188 | 36089 ft | 483 kts | 322° |
| 2026-05-07 17:21 | 23.28922 | 47.62918 | 35938 ft | 483 kts | 322° |
| 2026-05-07 17:21 | 23.32677 | 47.60409 | 35639 ft | 484 kts | 322° |
| 2026-05-07 17:21 | 23.35601 | 47.58454 | 35397 ft | 485 kts | 322° |
| 2026-05-07 17:21 | 23.38480 | 47.56529 | 35168 ft | 486 kts | 322° |
| 2026-05-07 17:22 | 23.41366 | 47.54598 | 34941 ft | 487 kts | 322° |
| 2026-05-07 17:22 | 23.44250 | 47.52667 | 34707 ft | 487 kts | 322° |
| 2026-05-07 17:22 | 23.46168 | 47.51382 | 34560 ft | 488 kts | 322° |
| 2026-05-07 17:22 | 23.49066 | 47.49440 | 34335 ft | 489 kts | 322° |
| 2026-05-07 17:23 | 23.51961 | 47.47498 | 34115 ft | 489 kts | 322° |
| 2026-05-07 17:23 | 23.54869 | 47.45546 | 33887 ft | 490 kts | 322° |
| 2026-05-07 17:23 | 23.57775 | 47.43595 | 33640 ft | 491 kts | 322° |
| 2026-05-07 17:23 | 23.60683 | 47.41641 | 33386 ft | 491 kts | 322° |
| 2026-05-07 17:24 | 23.63589 | 47.39687 | 33123 ft | 491 kts | 322° |
| 2026-05-07 17:24 | 23.66496 | 47.37731 | 32898 ft | 491 kts | 322° |
| 2026-05-07 17:24 | 23.69411 | 47.35769 | 32639 ft | 492 kts | 322° |
| 2026-05-07 17:24 | 23.72325 | 47.33807 | 32391 ft | 492 kts | 322° |
| 2026-05-07 17:25 | 23.75195 | 47.31873 | 32151 ft | 493 kts | 323° |
| 2026-05-07 17:25 | 23.78117 | 47.29903 | 31915 ft | 493 kts | 323° |
| 2026-05-07 17:25 | 23.81035 | 47.27935 | 31678 ft | 494 kts | 323° |
| 2026-05-07 17:25 | 23.83962 | 47.25961 | 31437 ft | 493 kts | 323° |
| 2026-05-07 17:26 | 23.86874 | 47.23996 | 31208 ft | 491 kts | 323° |
| 2026-05-07 17:26 | 23.89775 | 47.22037 | 30983 ft | 488 kts | 323° |
| 2026-05-07 17:26 | 23.92661 | 47.20088 | 30746 ft | 487 kts | 323° |
| 2026-05-07 17:26 | 23.95536 | 47.18144 | 30516 ft | 485 kts | 323° |
| 2026-05-07 17:27 | 23.98398 | 47.16208 | 30290 ft | 483 kts | 323° |
| 2026-05-07 17:27 | 24.01242 | 47.14283 | 30070 ft | 480 kts | 323° |
| 2026-05-07 17:27 | 24.04082 | 47.12359 | 29821 ft | 478 kts | 323° |
| 2026-05-07 17:27 | 24.06906 | 47.10446 | 29560 ft | 476 kts | 323° |
| 2026-05-07 17:28 | 24.09718 | 47.08539 | 29295 ft | 474 kts | 323° |
| 2026-05-07 17:28 | 24.12438 | 47.06535 | 28720 ft | 470 kts | 318° |
| 2026-05-07 17:28 | 24.14995 | 47.04311 | 28052 ft | 467 kts | 317° |
| 2026-05-07 17:28 | 24.17534 | 47.02104 | 27397 ft | 464 kts | 317° |
| 2026-05-07 17:29 | 24.20058 | 46.99924 | 26745 ft | 460 kts | 317° |
| 2026-05-07 17:29 | 24.22528 | 46.97796 | 26058 ft | 457 kts | 318° |
| 2026-05-07 17:29 | 24.25011 | 46.95655 | 25434 ft | 452 kts | 318° |
| 2026-05-07 17:29 | 24.27474 | 46.93529 | 24815 ft | 448 kts | 318° |
| 2026-05-07 17:30 | 24.29925 | 46.91413 | 24176 ft | 445 kts | 318° |
| 2026-05-07 17:30 | 24.32351 | 46.89316 | 23520 ft | 442 kts | 319° |
| 2026-05-07 17:30 | 24.34754 | 46.87239 | 22822 ft | 438 kts | 319° |
| 2026-05-07 17:30 | 24.37126 | 46.85190 | 22224 ft | 431 kts | 319° |
| 2026-05-07 17:31 | 24.39468 | 46.83165 | 21599 ft | 425 kts | 319° |
| 2026-05-07 17:31 | 24.41774 | 46.81170 | 20988 ft | 419 kts | 319° |
| 2026-05-07 17:31 | 24.44053 | 46.79196 | 20327 ft | 415 kts | 319° |
| 2026-05-07 17:31 | 24.46297 | 46.77251 | 19758 ft | 408 kts | 319° |
| 2026-05-07 17:32 | 24.48518 | 46.75325 | 19140 ft | 403 kts | 319° |
| 2026-05-07 17:32 | 24.50678 | 46.73451 | 18545 ft | 399 kts | 319° |
| 2026-05-07 17:32 | 24.52840 | 46.71575 | 17875 ft | 394 kts | 320° |
| 2026-05-07 17:32 | 24.54966 | 46.69731 | 17333 ft | 385 kts | 320° |
| 2026-05-07 17:33 | 24.57051 | 46.67923 | 16751 ft | 378 kts | 320° |
| 2026-05-07 17:33 | 24.59098 | 46.66146 | 16185 ft | 372 kts | 319° |
| 2026-05-07 17:33 | 24.61113 | 46.64395 | 15617 ft | 367 kts | 319° |
| 2026-05-07 17:33 | 24.63112 | 46.62657 | 15159 ft | 366 kts | 319° |
| 2026-05-07 17:34 | 24.65167 | 46.60865 | 15013 ft | 383 kts | 319° |
| 2026-05-07 17:34 | 24.67274 | 46.59071 | 14975 ft | 382 kts | 322° |
| 2026-05-07 17:34 | 24.69558 | 46.57563 | 14978 ft | 385 kts | 331° |
| 2026-05-07 17:34 | 24.71968 | 46.56362 | 14978 ft | 386 kts | 334° |
| 2026-05-07 17:35 | 24.74425 | 46.55155 | 14985 ft | 386 kts | 334° |
| 2026-05-07 17:35 | 24.76868 | 46.53940 | 14986 ft | 385 kts | 333° |
| 2026-05-07 17:35 | 24.79309 | 46.52717 | 14988 ft | 385 kts | 333° |
| 2026-05-07 17:35 | 24.81746 | 46.51495 | 14988 ft | 385 kts | 333° |
| 2026-05-07 17:36 | 24.84188 | 46.50269 | 14988 ft | 386 kts | 333° |
| 2026-05-07 17:36 | 24.86709 | 46.49250 | 14991 ft | 389 kts | 345° |
| 2026-05-07 17:36 | 24.89423 | 46.49028 | 14991 ft | 394 kts | 2° |
| 2026-05-07 17:36 | 24.92096 | 46.49678 | 14991 ft | 396 kts | 20° |
| 2026-05-07 17:37 | 24.94500 | 46.51151 | 14992 ft | 397 kts | 37° |
| 2026-05-07 17:37 | 24.96420 | 46.53324 | 14991 ft | 397 kts | 55° |
| 2026-05-07 17:37 | 24.97675 | 46.55973 | 14989 ft | 395 kts | 72° |
| 2026-05-07 17:37 | 24.98184 | 46.58922 | 14994 ft | 391 kts | 90° |
| 2026-05-07 17:38 | 24.97926 | 46.61882 | 14995 ft | 388 kts | 104° |
| 2026-05-07 17:38 | 24.97305 | 46.64775 | 14993 ft | 387 kts | 107° |
| 2026-05-07 17:38 | 24.96544 | 46.67607 | 14991 ft | 385 kts | 113° |
| 2026-05-07 17:38 | 24.95282 | 46.70189 | 14992 ft | 381 kts | 129° |
| 2026-05-07 17:39 | 24.93496 | 46.72321 | 14992 ft | 377 kts | 141° |
| 2026-05-07 17:39 | 24.91413 | 46.74075 | 14992 ft | 376 kts | 148° |
| 2026-05-07 17:39 | 24.89197 | 46.75607 | 14992 ft | 375 kts | 152° |
| 2026-05-07 17:39 | 24.86938 | 46.77040 | 14993 ft | 375 kts | 153° |
| 2026-05-07 17:40 | 24.84659 | 46.78451 | 14990 ft | 375 kts | 153° |
| 2026-05-07 17:40 | 24.82415 | 46.79845 | 14988 ft | 375 kts | 153° |
| 2026-05-07 17:40 | 24.80138 | 46.81274 | 14985 ft | 375 kts | 152° |
| 2026-05-07 17:40 | 24.77873 | 46.82706 | 14985 ft | 376 kts | 152° |
| 2026-05-07 17:41 | 24.75599 | 46.84148 | 14981 ft | 376 kts | 152° |
| 2026-05-07 17:41 | 24.73332 | 46.85589 | 14975 ft | 376 kts | 152° |
| 2026-05-07 17:41 | 24.71067 | 46.87029 | 14973 ft | 376 kts | 152° |
| 2026-05-07 17:41 | 24.68798 | 46.88471 | 14975 ft | 377 kts | 152° |
| 2026-05-07 17:42 | 24.66532 | 46.89912 | 14964 ft | 377 kts | 152° |
| 2026-05-07 17:42 | 24.64260 | 46.91356 | 14965 ft | 377 kts | 152° |
| 2026-05-07 17:42 | 24.61985 | 46.92801 | 14962 ft | 377 kts | 152° |
| 2026-05-07 17:42 | 24.59716 | 46.94242 | 14954 ft | 377 kts | 152° |
| 2026-05-07 17:43 | 24.57446 | 46.95685 | 14960 ft | 377 kts | 152° |
| 2026-05-07 17:43 | 24.55172 | 46.97129 | 14956 ft | 377 kts | 152° |
| 2026-05-07 17:43 | 24.52901 | 46.98572 | 14955 ft | 377 kts | 152° |
| 2026-05-07 17:43 | 24.50628 | 47.00014 | 14879 ft | 377 kts | 152° |
| 2026-05-07 17:44 | 24.48390 | 47.01437 | 14564 ft | 366 kts | 152° |
| 2026-05-07 17:44 | 24.46186 | 47.02758 | 14027 ft | 357 kts | 159° |
| 2026-05-07 17:44 | 24.43807 | 47.03357 | 13479 ft | 347 kts | 178° |
| 2026-05-07 17:44 | 24.41448 | 47.03016 | 12910 ft | 340 kts | 198° |
| 2026-05-07 17:45 | 24.39424 | 47.01818 | 12348 ft | 334 kts | 219° |
| 2026-05-07 17:45 | 24.37921 | 46.99870 | 11790 ft | 330 kts | 240° |
| 2026-05-07 17:45 | 24.37211 | 46.97541 | 11255 ft | 327 kts | 261° |
| 2026-05-07 17:45 | 24.37342 | 46.95073 | 10721 ft | 325 kts | 283° |
| 2026-05-07 17:46 | 24.38308 | 46.92852 | 10217 ft | 322 kts | 305° |
| 2026-05-07 17:46 | 24.39733 | 46.90978 | 9771 ft | 316 kts | 312° |
| 2026-05-07 17:46 | 24.41279 | 46.89295 | 9270 ft | 310 kts | 315° |
| 2026-05-07 17:46 | 24.42823 | 46.87670 | 8789 ft | 305 kts | 315° |
| 2026-05-07 17:47 | 24.44335 | 46.86078 | 8308 ft | 299 kts | 315° |
| 2026-05-07 17:47 | 24.45832 | 46.84502 | 7833 ft | 298 kts | 315° |
| 2026-05-07 17:47 | 24.47328 | 46.82926 | 7373 ft | 297 kts | 315° |
| 2026-05-07 17:47 | 24.48811 | 46.81359 | 7111 ft | 296 kts | 315° |
| 2026-05-07 17:48 | 24.50304 | 46.79779 | 6908 ft | 298 kts | 315° |
| 2026-05-07 17:48 | 24.51792 | 46.78204 | 6744 ft | 297 kts | 315° |
| 2026-05-07 17:48 | 24.53283 | 46.76625 | 6590 ft | 297 kts | 315° |
| 2026-05-07 17:48 | 24.54773 | 46.75046 | 6434 ft | 297 kts | 315° |
| 2026-05-07 17:49 | 24.56266 | 46.73469 | 6260 ft | 297 kts | 315° |
| 2026-05-07 17:49 | 24.57753 | 46.71896 | 6105 ft | 297 kts | 315° |
| 2026-05-07 17:49 | 24.59236 | 46.70317 | 5938 ft | 297 kts | 315° |
| 2026-05-07 17:49 | 24.60712 | 46.68777 | 5760 ft | 296 kts | 320° |
| 2026-05-07 17:50 | 24.62457 | 46.67527 | 5608 ft | 296 kts | 330° |
| 2026-05-07 17:50 | 24.64215 | 46.66394 | 5458 ft | 296 kts | 330° |
| 2026-05-07 17:50 | 24.65987 | 46.65241 | 5271 ft | 295 kts | 330° |
| 2026-05-07 17:50 | 24.67720 | 46.64105 | 5125 ft | 294 kts | 330° |
| 2026-05-07 17:51 | 24.69501 | 46.62926 | 4960 ft | 293 kts | 330° |
| 2026-05-07 17:51 | 24.71237 | 46.61764 | 4795 ft | 292 kts | 330° |
| 2026-05-07 17:51 | 24.72947 | 46.60610 | 4632 ft | 292 kts | 330° |
| 2026-05-07 17:51 | 24.74681 | 46.59429 | 4472 ft | 292 kts | 330° |
| 2026-05-07 17:52 | 24.76409 | 46.58246 | 4293 ft | 292 kts | 330° |
| 2026-05-07 17:52 | 24.78127 | 46.57063 | 4136 ft | 291 kts | 330° |
| 2026-05-07 17:52 | 24.79838 | 46.55880 | 4004 ft | 289 kts | 330° |
| 2026-05-07 17:52 | 24.81535 | 46.54703 | 3988 ft | 288 kts | 330° |
| 2026-05-07 17:53 | 24.83240 | 46.53531 | 3992 ft | 287 kts | 330° |
| 2026-05-07 17:53 | 24.84917 | 46.52364 | 3991 ft | 285 kts | 330° |
| 2026-05-07 17:53 | 24.86448 | 46.50999 | 4000 ft | 287 kts | 312° |
| 2026-05-07 17:53 | 24.87407 | 46.49047 | 3994 ft | 294 kts | 286° |
| 2026-05-07 17:54 | 24.87582 | 46.46840 | 3999 ft | 303 kts | 262° |
| 2026-05-07 17:54 | 24.86905 | 46.44579 | 3997 ft | 314 kts | 238° |
| 2026-05-07 17:54 | 24.85545 | 46.42857 | 3991 ft | 283 kts | 213° |
| 2026-05-07 17:54 | 24.83830 | 46.42022 | 3999 ft | 269 kts | 187° |
| 2026-05-07 17:55 | 24.81976 | 46.42119 | 3996 ft | 267 kts | 160° |
| 2026-05-07 17:55 | 24.80420 | 46.43097 | 4000 ft | 257 kts | 134° |
| 2026-05-07 17:55 | 24.79420 | 46.44717 | 3996 ft | 258 kts | 116° |
| 2026-05-07 17:55 | 24.78576 | 46.46453 | 3995 ft | 258 kts | 116° |
| 2026-05-07 17:56 | 24.77726 | 46.48190 | 3985 ft | 257 kts | 117° |
| 2026-05-07 17:56 | 24.76893 | 46.49926 | 3992 ft | 256 kts | 117° |
| 2026-05-07 17:56 | 24.76069 | 46.51665 | 3990 ft | 255 kts | 117° |
| 2026-05-07 17:56 | 24.75266 | 46.53379 | 3989 ft | 255 kts | 116° |
| 2026-05-07 17:57 | 24.74487 | 46.55135 | 3978 ft | 257 kts | 109° |
| 2026-05-07 17:57 | 24.74276 | 46.56446 | 3989 ft | 259 kts | 91° |
| 2026-05-07 17:57 | 24.74438 | 46.59034 | 3986 ft | 254 kts | 87° |
| 2026-05-07 17:57 | 24.74569 | 46.60998 | 3985 ft | 259 kts | 87° |
| 2026-05-07 17:58 | 24.74910 | 46.62938 | 3984 ft | 258 kts | 75° |
| 2026-05-07 17:58 | 24.75434 | 46.64832 | 3987 ft | 259 kts | 75° |
| 2026-05-07 17:58 | 24.75943 | 46.66735 | 3986 ft | 259 kts | 75° |
| 2026-05-07 17:58 | 24.76616 | 46.68571 | 3988 ft | 255 kts | 67° |
| 2026-05-07 17:59 | 24.77354 | 46.70243 | 3919 ft | 233 kts | 67° |
| 2026-05-07 17:59 | 24.78038 | 46.71784 | 3797 ft | 216 kts | 67° |
| 2026-05-07 17:59 | 24.78681 | 46.73243 | 3609 ft | 207 kts | 67° |
| 2026-05-07 17:59 | 24.79310 | 46.74650 | 3370 ft | 202 kts | 66° |
| 2026-05-07 18:00 | 24.79911 | 46.76029 | 3114 ft | 199 kts | 67° |
| 2026-05-07 18:00 | 24.80503 | 46.77371 | 3011 ft | 188 kts | 67° |
| 2026-05-07 18:00 | 24.81199 | 46.78494 | 2985 ft | 173 kts | 45° |
| 2026-05-07 18:00 | 24.82234 | 46.79051 | 2986 ft | 160 kts | 14° |
| 2026-05-07 18:01 | 24.83352 | 46.79002 | 3007 ft | 168 kts | 352° |
| 2026-05-07 18:01 | 24.84441 | 46.78547 | 2991 ft | 167 kts | 338° |
| 2026-05-07 18:01 | 24.85476 | 46.77931 | 2996 ft | 170 kts | 334° |
| 2026-05-07 18:01 | 24.86485 | 46.77285 | 2992 ft | 170 kts | 333° |
| 2026-05-07 18:02 | 24.88435 | 46.76052 | 2992 ft | 171 kts | 334° |
| 2026-05-07 18:02 | 24.89467 | 46.75398 | 2989 ft | 171 kts | 335° |
| 2026-05-07 18:02 | 24.90503 | 46.74742 | 2963 ft | 173 kts | 335° |
| 2026-05-07 18:03 | 24.91538 | 46.74091 | 2736 ft | 166 kts | 333° |
| 2026-05-07 18:03 | 24.92492 | 46.73481 | 2499 ft | 154 kts | 333° |
| 2026-05-07 18:03 | 24.93402 | 46.72902 | 2314 ft | 144 kts | 332° |
| 2026-05-07 18:03 | 24.94268 | 46.72328 | 2148 ft | 147 kts | 340° |
| 2026-05-07 18:04 | 24.95107 | 46.71843 | 2045 ft | 122 kts | 334° |
| 2026-05-07 18:04 | 24.95723 | 46.71453 | 2039 ft | 79 kts | 330° |
| 2026-05-07 18:04 | 24.96109 | 46.71206 | 2047 ft | 58 kts | 329° |
| 2026-05-07 18:04 | 24.96354 | 46.71045 | 2046 ft | 35 kts | 326° |
| 2026-05-07 18:05 | 24.96483 | 46.70893 | 2047 ft | 26 kts | 304° |
| 2026-05-07 18:05 | 24.96522 | 46.70743 | 2046 ft | 19 kts | 252° |
| 2026-05-07 18:05 | 24.96477 | 46.70608 | 2052 ft | 19 kts | 242° |
| 2026-05-07 18:05 | 24.96412 | 46.70483 | 2050 ft | 19 kts | 240° |
| 2026-05-07 18:06 | 24.96357 | 46.70377 | 2049 ft | 13 kts | 240° |
| 2026-05-07 18:06 | 24.96303 | 46.70332 | 2049 ft | 10 kts | 201° |
| 2026-05-07 18:06 | 24.96235 | 46.70303 | 2048 ft | 11 kts | 201° |
| 2026-05-07 18:06 | 24.96218 | 46.70296 | 2050 ft | 0 kts | 200° |